St. George, Utah Weather observations

Data are for observation ending at time listed.
 Day   Time    Ave.   Ave.  Ave.  Vector   Max.   Stn.    Total    Solar   Ave.  
  of    of     Air    Rel.  Wind   Wind    Wind   Baro.  Precip.   Rad.    Soil  
Year   Day     Temp.  Hum.  Speed  Dir.    Gust   Pres.                    Temp. 
2014   (MST)    F      %     mph   deg.    mph     mb.     in.     W/m2     F   
------------------------------------------------------------------------------
 304    3:20   55.8    44    1.2   350      2.0   920.2    0.00       0    65.6
 304    3:30   55.5    47    1.0   160      4.2   920.2    0.00       0    65.5
 304    3:40   54.8    49    0.8    66      3.1   919.8    0.00       0    65.4
 304    3:50   53.7    52    2.2   246      4.2   920.1    0.00       0    65.4
 304    4:00   53.4    51    0.8   351      3.6   920.0    0.00       0    65.4
 304    4:10   52.8    53    0.7    81      1.6   919.8    0.00       0    65.3
 304    4:20   52.6    52    0.3   106      1.2   919.8    0.00       0    65.2
 304    4:30   52.5    54    1.1   236      2.3   919.9    0.00       0    65.2
 304    4:40   52.8    52    1.9   347      4.2   919.9    0.00       0    65.1
 304    4:50   53.3    51    0.3    18      1.2   919.8    0.00       0    65.1
 304    5:00   53.6    50    0.3   305      1.5   919.9    0.00       0    65.0
 304    5:10   53.7    50    0.4    19      2.0   919.9    0.00       0    64.9
 304    5:20   53.8    52    0.5   207      1.8   919.9    0.00       0    64.9
 304    5:30   53.3    53    0.7   136      2.5   920.0    0.00       0    64.8
 304    5:40   53.0    56    0.9   219      2.6   919.8    0.00       0    64.8
 304    5:50   52.3    57    0.8   301      2.7   919.8    0.00       0    64.7
 304    6:00   52.0    57    0.6    18      1.8   919.9    0.00       0    64.7
 304    6:10   51.7    61    0.3   277      1.7   920.0    0.00       0    64.6
 304    6:20   51.2    60    0.6    37      1.5   920.0    0.00       0    64.6
 304    6:30   51.3    57    0.6    45      1.4   919.9    0.00       0    64.5
 304    6:40   51.5    55    0.2   173      1.1   919.8    0.00       0    64.5
 304    6:50   51.7    58    1.1   341      2.9   920.0    0.00       1    64.4
 304    7:00   51.8    55    0.9   357      2.4   919.9    0.00       3    64.3
 304    7:10   52.0    54    0.4   232      2.4   919.9    0.00       3    64.3
 304    7:20   51.6    56    0.6   216      2.1   920.0    0.00       8    64.2
 304    7:30   51.2    56    0.4    51      1.5   920.0    0.00      16    64.2
 304    7:40   51.4    54    0.2   196      1.8   919.9    0.00      26    64.1
 304    7:50   51.6    58    1.0   230      2.0   920.0    0.00      30    64.1
 304    8:00   51.5    58    0.5   305      2.0   920.1    0.00      29    64.0
 304    8:10   51.7    55    0.5   186      1.5   920.2    0.00     120    64.0
 304    8:20   54.2    46    0.3    98      1.2   920.2    0.00     206    63.9
 304    8:30   55.5    43    0.5   196      2.1   920.2    0.00     246    63.8
 304    8:40   55.8    42    0.7   180      2.0   920.3    0.00     189    63.8
 304    8:50   56.7    41    0.9   139      2.4   920.3    0.00     298    63.8
 304    9:00   58.0    38    0.8   209      3.1   920.2    0.00     321    63.8
 304    9:10   58.8    37    1.4   217      2.6   920.2    0.00     344    63.8
 304    9:20   59.7    36    1.2   225      2.4   920.2    0.00     347    63.7
 304    9:30   60.6    38    0.4   212      1.7   920.1    0.00     169    63.7
 304    9:40   61.3    37    1.0   177      2.3   920.0    0.00     447    63.7
 304    9:50   62.8    35    0.9   169      2.3   919.8    0.00     433    63.7
 304   10:00   64.2    33    0.7   199      2.0   919.7    0.00     492    63.7
 304   10:10   65.0    31    1.7   198      3.1   919.6    0.00     515    63.6
 304   10:20   66.1    29    1.2   164      2.6   919.5    0.00     531    63.6
 304   10:30   67.7    28    0.4   147      2.3   919.3    0.00     475    63.6
 304   10:40   68.8    27    0.9   176      2.0   919.2    0.00     474    63.6
 304   10:50   69.5    26    1.6   191      3.2   919.0    0.00     547    63.6
 304   11:00   70.9    24    1.5   176      3.2   918.9    0.00     614    63.6
 304   11:10   71.9    24    1.2   164      3.1   918.7    0.00     588    63.6
 304   11:20   73.2    22    1.4   183      3.6   918.5    0.00     622    63.7
 304   11:30   74.5    20    1.5   192      3.1   918.4    0.00     669    63.7
 304   11:40   75.9    20    1.1   170      2.9   918.2    0.00     666    63.7
 304   11:50   77.7    17    0.4   178      2.2   917.9    0.00     671    63.8
 304   12:00   79.3    16    0.7   169      2.1   917.6    0.00     651    63.8
 304   12:10   80.0    17    1.2    57      3.0   917.2    0.00     656    64.0
 304   12:20   80.5    16    1.4   286      4.7   916.9    0.00     663    64.1
 304   12:30   81.5    16    1.1   182      3.9   916.5    0.00     663    64.2
 304   12:40   81.3    15    1.6   245      4.1   916.3    0.00     661    64.3
 304   12:50   82.9    15    1.2   206      3.7   916.1    0.00     658    64.5
 304   13:00   82.8    15    1.2   152      2.7   915.9    0.00     647    64.7
 304   13:10   83.2    16    0.8    81      3.8   915.6    0.00     639    64.9
 304   13:20   83.4    15    0.9   255      3.1   915.4    0.00     630    65.1
 304   13:30   82.9    16    1.1   346      3.9   915.1    0.00     621    65.4
 304   13:40   82.7    16    2.1   299      4.7   915.0    0.00     612    65.6
 304   13:50   83.0    16    3.0   256      7.8   914.8    0.00     600    65.8
 304   14:00   82.7    16    3.0   247      6.7   914.7    0.00     587    66.1
 304   14:10   82.4    16    2.8   308      7.7   914.5    0.00     573    66.3
 304   14:20   83.0    15    1.7   258      5.3   914.3    0.00     556    66.6
 304   14:30   83.2    15    2.0   335      7.4   914.1    0.00     534    66.9
 304   14:40   83.4    15    2.2   313      5.9   913.9    0.00     516    67.1
 304   14:50   84.0    15    1.9   298      6.1   913.8    0.00     496    67.4
 304   15:00   83.9    15    3.5   206     11.1   913.7    0.00     471    67.6
 304   15:10   83.5    15    4.5   222      9.6   913.5    0.00     448    67.9
 304   15:20   83.9    16    3.2   253      7.2   913.4    0.00     426    68.1
 304   15:30   83.5    16    4.0   230      8.1   913.3    0.00     399    68.4
 304   15:40   83.8    16    3.8   231      8.5   913.2    0.00     372    68.6
 304   15:50   83.3    16    3.8   232      7.8   913.1    0.00     346    68.8
 304   16:00   84.5    16    1.9   239      4.0   913.0    0.00     319    69.0
 304   16:10   84.7    16    1.9   252      6.6   912.9    0.00     279    69.2
 304   16:20   83.8    17    3.2   235      8.3   912.8    0.00     218    69.4
 304   16:30   82.9    17    2.4   241      6.0   912.8    0.00     195    69.5
 304   16:40   82.5    18    1.1   244      3.8   912.6    0.00      64    69.7
 304   16:50   80.4    20    1.8   258      5.6   912.6    0.00      39    69.9
 304   17:00   78.9    21    1.1   256      3.5   912.6    0.00      33    70.0
 304   17:10   78.0    21    1.6   258      3.4   912.5    0.00      29    70.1
 304   17:20   77.4    22    1.4   263      3.1   912.5    0.00      26    70.2
 304   17:30   76.7    23    1.1   257      3.7   912.4    0.00      12    70.3
 304   17:40   75.9    24    0.9   243      2.3   912.4    0.00       4    70.3
 304   17:50   74.9    24    1.4   299      4.0   912.5    0.00       3    70.4
 304   18:00   74.8    24    1.9   238      4.3   912.5    0.00       2    70.4
 304   18:10   75.2    23    1.8   283      5.4   912.5    0.00       0    70.4
 304   18:20   75.0    23    2.1   334      4.7   912.5    0.00       0    70.4
 304   18:30   74.6    24    1.3   306      2.9   912.5    0.00       0    70.5
 304   18:40   72.8    27    0.2   204      0.9   912.6    0.00       0    70.5
 304   18:50   70.9    30    0.5    51      1.7   912.6    0.00       0    70.5
 304   19:00   69.7    31    0.5    45      1.3   912.7    0.00       0    70.5
 304   19:10   69.4    32    0.6     3      1.5   912.8    0.00       0    70.4
 304   19:20   69.4    32    0.9     4      1.9   912.8    0.00       0    70.4
 304   19:30   69.6    31    1.2   360      2.3   912.7    0.00       0    70.4
 304   19:40   68.8    32    0.5   341      1.5   912.8    0.00       0    70.3
 304   19:50   67.8    33    0.7    13      1.3   912.8    0.00       0    70.3
 304   20:00   68.0    32    0.7    15      1.5   912.7    0.00       0    70.2
 304   20:10   67.5    34    0.0   185      0.3   912.8    0.00       0    70.2
 304   20:20   66.6    35    0.6     5      1.6   912.8    0.00       0    70.1
 304   20:30   66.3    36    0.2   317      1.0   912.7    0.00       0    70.1
 304   20:40   66.0    36    0.8    20      1.9   912.6    0.00       0    70.0
 304   20:50   65.9    35    0.1   237      1.6   912.6    0.00       0    69.9
 304   21:00   65.4    37    0.3   251      1.7   912.7    0.00       0    69.9
 304   21:10   65.1    38    0.6   289      1.5   912.8    0.00       0    69.8
 304   21:20   64.8    39    0.3   269      1.1   912.8    0.00       0    69.8
 304   21:30   64.6    39    0.3   202      1.1   912.8    0.00       0    69.7
 304   21:40   64.0    40    0.4   312      1.5   912.8    0.00       0    69.6
 304   21:50   63.8    41    0.5   286      2.3   912.9    0.00       0    69.6
 304   22:00   63.8    41    1.6   354      6.9   912.9    0.00       0    69.5
 304   22:10   64.3    40    3.4   228      8.0   912.8    0.00       0    69.4
 304   22:20   64.5    37    1.9    29      3.9   912.7    0.00       0    69.4
 304   22:30   67.4    30    2.4    41      5.8   912.6    0.00       0    69.3
 304   22:40   67.7    30    1.2   126      3.1   912.6    0.00       0    69.2
 304   22:50   68.2    30    1.4    72      4.8   912.4    0.00       0    69.2
 304   23:00   65.1    38    2.1   223      4.1   912.4    0.00       0    69.1
 304   23:10   63.4    41    0.6   112      1.9   912.4    0.00       0    69.1
 304   23:20   63.6    39    0.6   238      1.8   912.2    0.00       0    69.0
 304   23:30   62.7    43    1.3   258      2.8   912.2    0.00       0    68.9
 304   23:40   62.3    43    1.2   350      3.4   912.1    0.00       0    68.9
 304   23:50   63.4    39    1.9    17      3.8   911.9    0.00       0    68.8
 305    0:00   66.3    31    1.9    33      3.8   911.7    0.00       0    68.8
 305    0:10   67.5    29    2.0    35      4.3   911.6    0.00       0    68.7
 305    0:20   68.0    29    2.9    52      7.2   911.5    0.00       0    68.6
 305    0:30   68.8    27    2.3    60      6.4   911.4    0.00       0    68.5
 305    0:40   68.4    28    1.3    56      4.7   911.3    0.00       0    68.5
 305    0:50   68.1    28    1.3    79      4.2   911.2    0.00       0    68.4
 305    1:00   67.4    30    1.2    57      4.5   911.1    0.00       0    68.4
 305    1:10   67.4    30    1.6    71      4.0   911.0    0.00       0    68.4
 305    1:20   67.4    29    1.0    72      3.0   911.0    0.00       0    68.3
 305    1:30   66.6    32    3.0    87      6.9   911.0    0.00       0    68.3
 305    1:40   66.3    32    2.3   120      6.1   911.0    0.00       0    68.2
 305    1:50   66.6    32    1.6    51      5.9   910.9    0.00       0    68.2
 305    2:00   66.1    32    2.0   177      5.4   911.0    0.00       0    68.1
 305    2:10   64.5    36    1.9   218      5.3   910.9    0.00       0    68.1
 305    2:20   63.4    39    1.9   323      6.7   910.9    0.00       0    68.0
 305    2:30   62.8    39    1.5   329      2.8   910.9    0.00       0    68.0
 305    2:40   62.3    42    1.6   331      2.6   910.8    0.00       0    67.9
 305    2:50   63.1    40    2.2    39      6.1   910.7    0.00       0    67.9
 305    3:00   65.8    35    1.6    97      8.6   910.6    0.00       0    67.8
 305    3:10   64.7    39    2.4   110      7.0   910.5    0.00       0    67.7

Return to St. George, Utah graphs page.


Western Regional Climate Center,wrcc@dri.edu